Hesperia, Michigan
Current Conditions -  °F | °C
As of 12:53 PM on Thursday 23 Oct 2014 (Local Time) from KFFX Reporting Station
Clear Clear  
Wind Chill: 51°   Ceiling: Unl
Heat Index: 51°   Visibility: 10mi
Dew Point: 43°   Wind: 5mph
Humidity: 75%   Direction: 210°SSW
Pressure: 30.19"   Gusts: NA
Location:  43.57°N, 86.04°W
Report Text: KFFX 231653Z AUTO 21004KT 10SM CLR 11/06 A3019 RMK AO2 T01060063
Loading
Personal Weather Stations






























Interactive Weather Map
Tropical Storm Tracking
New forecast layout! Learn more

10-Day Weather Forecast

Advertisements
Track Severe Weather on mobile